Schedule Details


Flight Number: CTN631
Departure: Pula (LDPL) at 06:00
Arrival: Zemunik (LDZD) at 06:35
Route: LOS N606 EBITA

Weather Information
LDPL 242100Z 03007KT CAVOK 23/18 Q1020 BECMG 06008KT
LDZD 242100Z VRB01KT CAVOK 23/17 Q1019 BECMG 04008KT
Schedule Frequency

Route Map